createdAt,value
2022-08-25T00:02:59.928Z,59.72
2022-08-25T00:09:18.920Z,59.78
2022-08-25T00:15:43.186Z,59.90
2022-08-25T00:22:07.426Z,60.01
2022-08-25T00:28:31.731Z,60.08
2022-08-25T00:34:55.601Z,60.08
2022-08-25T00:41:29.097Z,60.22
2022-08-25T00:47:53.373Z,60.01
2022-08-25T00:54:17.719Z,59.96
2022-08-25T01:00:41.991Z,59.96
2022-08-25T01:07:06.191Z,60.06
2022-08-25T01:13:34.474Z,60.25
2022-08-25T01:19:58.416Z,60.13
2022-08-25T01:26:30.144Z,60.32
2022-08-25T01:32:55.231Z,60.25
2022-08-25T01:39:12.275Z,60.45
2022-08-25T01:45:36.605Z,60.65
2022-08-25T01:52:01.167Z,60.67
2022-08-25T01:58:25.531Z,60.62
2022-08-25T02:04:50.714Z,60.72
2022-08-25T02:11:15.183Z,60.64
2022-08-25T02:17:39.414Z,60.82
2022-08-25T02:24:03.653Z,61.00
2022-08-25T02:30:27.973Z,61.25
2022-08-25T02:36:50.806Z,60.89
2022-08-25T02:43:14.981Z,61.17
2022-08-25T02:49:39.186Z,61.00
2022-08-25T02:56:03.461Z,61.00
2022-08-25T03:02:27.742Z,61.26
2022-08-25T03:08:51.936Z,61.39
2022-08-25T03:15:16.148Z,61.61
2022-08-25T03:21:40.874Z,61.56
2022-08-25T03:28:05.330Z,61.44
2022-08-25T03:34:29.770Z,61.23
2022-08-25T03:40:49.338Z,61.44
2022-08-25T03:47:22.661Z,61.23
2022-08-25T03:53:46.917Z,61.24
2022-08-25T04:00:11.181Z,61.34
2022-08-25T04:06:38.326Z,61.23
2022-08-25T04:13:02.637Z,61.22
2022-08-25T04:19:26.940Z,61.58
2022-08-25T04:25:44.031Z,61.50
2022-08-25T04:32:06.172Z,61.76
2022-08-25T04:38:30.523Z,61.85
2022-08-25T04:44:54.841Z,61.86
2022-08-25T04:51:19.180Z,61.66
2022-08-25T04:57:43.537Z,61.83
2022-08-25T05:04:07.819Z,61.63
2022-08-25T05:10:33.187Z,61.35
2022-08-25T05:16:57.464Z,61.18
2022-08-25T05:23:21.767Z,61.05
2022-08-25T05:29:46.101Z,61.01
2022-08-25T05:36:10.387Z,61.58
2022-08-25T05:42:34.881Z,61.19
2022-08-25T05:48:59.264Z,60.93
2022-08-25T05:55:23.565Z,60.66
2022-08-25T06:01:46.556Z,60.76
2022-08-25T06:08:10.923Z,60.68
2022-08-25T06:14:35.301Z,60.59
2022-08-25T06:20:59.581Z,60.38
2022-08-25T06:27:23.968Z,60.49
2022-08-25T06:33:48.173Z,60.36
2022-08-25T06:40:12.460Z,60.29
2022-08-25T06:46:37.273Z,60.15
2022-08-25T06:53:01.739Z,60.12
2022-08-25T06:59:26.039Z,59.82
2022-08-25T07:05:56.692Z,59.82
2022-08-25T07:12:20.989Z,59.59
2022-08-25T07:18:45.365Z,59.43
2022-08-25T07:25:09.781Z,59.41
2022-08-25T07:31:34.207Z,59.32
2022-08-25T07:37:58.728Z,59.25
2022-08-25T07:44:24.552Z,59.12
2022-08-25T07:50:52.530Z,59.14
2022-08-25T07:57:10.791Z,59.20
2022-08-25T08:03:45.669Z,59.11
2022-08-25T08:17:00.168Z,59.12
2022-08-25T08:23:25.714Z,59.03
2022-08-25T08:29:50.119Z,58.99
2022-08-25T08:36:14.471Z,59.03
2022-08-25T08:42:50.418Z,58.89
2022-08-25T08:56:13.113Z,59.11
2022-08-25T09:02:39.312Z,59.13
2022-08-25T09:09:19.245Z,59.27
2022-08-25T09:15:54.669Z,59.41
2022-08-25T09:22:33.607Z,59.50
2022-08-25T09:29:00.429Z,59.43
2022-08-25T09:35:24.707Z,59.30
2022-08-25T09:41:51.327Z,59.33
2022-08-25T09:48:15.971Z,59.42
2022-08-25T09:54:44.242Z,59.35
2022-08-25T10:01:14.246Z,59.24
2022-08-25T10:07:38.686Z,59.29
2022-08-25T10:14:03.186Z,59.26
2022-08-25T10:20:27.500Z,59.03
2022-08-25T10:27:08.673Z,58.96
2022-08-25T10:33:51.142Z,58.94
2022-08-25T10:40:18.331Z,58.96
2022-08-25T10:47:18.133Z,58.94
2022-08-25T10:53:47.454Z,58.78
2022-08-25T11:00:33.383Z,58.61
2022-08-25T11:07:31.205Z,58.41
2022-08-25T11:14:06.321Z,58.30
2022-08-25T11:20:42.297Z,58.20
2022-08-25T11:27:09.914Z,58.40
2022-08-25T11:33:39.277Z,58.07
2022-08-25T11:40:11.907Z,57.92
2022-08-25T11:46:49.421Z,57.35
2022-08-25T11:53:37.945Z,57.26
2022-08-25T12:00:06.741Z,57.11
2022-08-25T12:06:32.152Z,57.01
2022-08-25T12:13:12.082Z,57.06
2022-08-25T12:19:38.085Z,56.76
2022-08-25T12:26:07.065Z,56.38
2022-08-25T12:32:38.847Z,56.47
2022-08-25T12:39:10.939Z,56.65
2022-08-25T12:45:53.794Z,56.57
2022-08-25T12:52:17.629Z,56.48
2022-08-25T12:59:00.303Z,55.84
2022-08-25T13:05:43.881Z,53.36
2022-08-25T13:12:29.389Z,50.44
2022-08-25T13:18:54.061Z,47.80
2022-08-25T13:25:42.250Z,45.43
2022-08-25T13:32:09.251Z,45.23
2022-08-25T13:38:34.093Z,46.72
2022-08-25T13:44:59.590Z,48.03
2022-08-25T13:51:31.306Z,49.09
2022-08-25T13:57:58.739Z,49.82
2022-08-25T14:04:14.859Z,50.32
2022-08-25T14:10:39.117Z,50.11
2022-08-25T14:17:39.018Z,50.19
2022-08-25T14:24:14.721Z,50.29
2022-08-25T14:30:46.135Z,49.92
2022-08-25T14:37:09.991Z,50.20
2022-08-25T14:43:34.458Z,49.90
2022-08-25T14:49:55.093Z,50.11
2022-08-25T14:56:20.694Z,50.68
2022-08-25T15:02:44.933Z,50.66
2022-08-25T15:09:33.535Z,50.86
2022-08-25T15:15:52.450Z,51.14
2022-08-25T15:22:10.163Z,51.39
2022-08-25T15:28:35.508Z,51.44
2022-08-25T15:35:03.808Z,51.64
2022-08-25T15:41:33.196Z,51.68
2022-08-25T15:47:54.127Z,51.84
2022-08-25T15:54:18.761Z,51.97
2022-08-25T16:00:43.505Z,51.92
2022-08-25T16:07:15.641Z,51.94
2022-08-25T16:13:40.957Z,52.08
2022-08-25T16:20:06.636Z,52.44
2022-08-25T16:26:31.012Z,52.58
2022-08-25T16:32:55.322Z,52.53
2022-08-25T16:39:20.631Z,52.50
2022-08-25T16:45:45.312Z,52.48
2022-08-25T16:52:09.839Z,52.55
2022-08-25T16:58:34.116Z,52.53
2022-08-25T17:04:58.423Z,52.69
2022-08-25T17:11:24.231Z,52.84
2022-08-25T17:17:48.592Z,52.96
2022-08-25T17:24:13.047Z,53.19
2022-08-25T17:30:37.317Z,53.35
2022-08-25T17:37:01.757Z,53.45
2022-08-25T17:43:17.458Z,53.52
2022-08-25T17:49:43.072Z,53.61
2022-08-25T17:56:07.507Z,53.75
2022-08-25T18:02:31.818Z,53.73
2022-08-25T18:09:00.043Z,53.82
2022-08-25T18:15:24.537Z,54.23
2022-08-25T18:21:50.086Z,54.37
2022-08-25T18:28:16.916Z,54.56
2022-08-25T18:34:41.167Z,54.62
2022-08-25T18:41:05.604Z,54.62
2022-08-25T18:47:29.869Z,54.36
2022-08-25T18:53:54.614Z,54.38
2022-08-25T19:00:25.183Z,54.24
2022-08-25T19:06:49.538Z,54.20
2022-08-25T19:13:16.401Z,54.12
2022-08-25T19:19:46.796Z,53.53
2022-08-25T19:26:16.876Z,53.70
2022-08-25T19:32:41.760Z,53.05
2022-08-25T19:39:06.083Z,51.05
2022-08-25T19:45:16.892Z,49.54
2022-08-25T19:51:41.246Z,48.86
2022-08-25T19:58:09.091Z,48.19
